Hansa Limburg — A8IH6 — position and weather

sailwx.info

Track history (hours):
 
Tides and Currents Weather Stations Pressure Air Temp Water Temp Dewpoint Dewpoint Depression Visibility Wind Speed Wind Dir Waves Ship Positions

Hansa Limburg

Last reported at 2017-Dec-15 19:58 UTC. Time now 2017-Dec-15 20:04 UTC.
Position N 44°43' E 037°49'.

Length 175.5 m; beam 27.4 m; draft 10.9 m.

Type: Ship (hazmat cat A). MMSI: 636090980.

Date/timePositionNaut miles runAvg speedWind from/ knotsBaromVisibWave heightAir tempDewpointWater temp
2017-Dec-15 19:58N 44°43' E 037°49'0 0.0
2017-Dec-15 19:28N 44°43' E 037°49'0 0.0
2017-Dec-15 18:55N 44°43' E 037°49'0 0.0
2017-Dec-15 18:28N 44°43' E 037°49'0 0.0
2017-Dec-15 17:58N 44°43' E 037°49'0 0.0
2017-Dec-15 17:28N 44°43' E 037°49'0 0.0
2017-Dec-15 16:58N 44°43' E 037°49'0 0.0
2017-Dec-15 16:28N 44°43' E 037°49'0 0.0
2017-Dec-15 15:58N 44°43' E 037°49'0 0.0
2017-Dec-15 15:28N 44°43' E 037°49'0 0.0
2017-Dec-15 14:58N 44°43' E 037°49'0 0.0
2017-Dec-15 14:28N 44°43' E 037°49'0 0.0
2017-Dec-15 13:58N 44°43' E 037°49'0 0.0
2017-Dec-15 13:28N 44°43' E 037°49'0 0.0
2017-Dec-15 12:58N 44°43' E 037°49'0 0.5
2017-Dec-15 12:30N 44°43' E 037°49'4 7.4
2017-Dec-15 12:00N 44°40' E 037°50'3 6.1
2017-Dec-15 11:30N 44°37' E 037°51'3 6.6
2017-Dec-15 11:01N 44°34' E 037°48'815.9
2017-Dec-15 10:31N 44°32' E 037°37'815.9
2017-Dec-15 10:00N 44°31' E 037°26'11 2.2
2017-Dec-15 04:55N 44°26' E 037°11'1 0.9
2017-Dec-15 03:49N 44°25' E 037°11'1 0.7
2017-Dec-15 02:28N 44°24' E 037°12'1 0.6
2017-Dec-15 00:38N 44°23' E 037°12'0 0.5
2017-Dec-15 00:29N 44°23' E 037°12'3 0.4
2017-Dec-14 18:23N 44°21' E 037°14'1 3.8
2017-Dec-14 18:00N 44°22' E 037°15'713.7
2017-Dec-14 17:27N 44°29' E 037°17'3 0.8
2017-Dec-14 14:06N 44°27' E 037°19'0 1.0
2017-Dec-14 13:59N 44°27' E 037°19'1 1.0
2017-Dec-14 13:21N 44°27' E 037°19'0 0.9
2017-Dec-14 13:00N 44°26' E 037°20'0 0.9
2017-Dec-14 12:27N 44°26' E 037°20'2 0.6
2017-Dec-14 09:46N 44°24' E 037°21'0 0.6
2017-Dec-14 09:27N 44°24' E 037°21'0 0.6
2017-Dec-14 09:00N 44°24' E 037°21'1 0.6
2017-Dec-14 07:01N 44°23' E 037°21'0 0.4
2017-Dec-14 07:00N 44°23' E 037°21'0 0.5
2017-Dec-14 06:28N 44°22' E 037°21'0 0.9
2017-Dec-14 06:00N 44°22' E 037°20'5 9.8
2017-Dec-14 05:29N 44°27' E 037°21'4 1.8
2017-Dec-14 03:18N 44°31' E 037°24'1 0.8
2017-Dec-14 01:30N 44°29' E 037°25'0 0.9
2017-Dec-14 00:59N 44°29' E 037°25'1 0.9
2017-Dec-13 23:33N 44°28' E 037°26'0 1.0
2017-Dec-13 23:28N 44°28' E 037°26'1 1.1
2017-Dec-13 22:55N 44°27' E 037°27'0 1.1
2017-Dec-13 22:30N 44°27' E 037°27'1 1.8
2017-Dec-13 21:50N 44°27' E 037°29'3 9.6
2017-Dec-13 21:30N 44°24' E 037°27'510.7
2017-Dec-13 21:00N 44°21' E 037°20'611.1
2017-Dec-13 20:29N 44°18' E 037°13'1011.0
2017-Dec-13 19:36N 44°14' E 037°01'48354.1
2017-Dec-13 19:28N 44°35' E 038°01'5966.0
2017-Dec-13 18:34N 44°08' E 036°47'211.5
2017-Dec-13 18:26N 44°08' E 036°45'39111.4
2017-Dec-12 08:03N 40°59' E 028°60'614.4
2017-Dec-12 07:38N 40°53' E 029°00'213.4
2017-Dec-12 07:30N 40°51' E 029°01'5 9.6
2017-Dec-12 07:00N 40°46' E 029°02'0 0.4
2017-Dec-12 06:30N 40°46' E 029°02'0 0.4
2017-Dec-12 06:00N 40°46' E 029°01'0 0.4
2017-Dec-12 05:29N 40°46' E 029°01'0 0.5
2017-Dec-12 04:54N 40°46' E 029°01'0 0.6
2017-Dec-12 04:28N 40°46' E 029°00'0 0.7
2017-Dec-12 03:57N 40°46' E 028°60'0 0.6
2017-Dec-12 03:30N 40°46' E 028°60'0 0.6
2017-Dec-12 02:56N 40°46' E 028°59'0 0.6
2017-Dec-12 02:30N 40°46' E 028°59'0 0.6
2017-Dec-12 02:00N 40°46' E 028°59'0 0.6
2017-Dec-12 01:28N 40°46' E 028°58'0 0.6
2017-Dec-12 00:54N 40°45' E 028°58'1 2.9
2017-Dec-12 00:28N 40°46' E 028°57'714.0
2017-Dec-11 23:56N 40°51' E 028°49'9 0.2
2017-Dec-10 03:29N 40°56' E 028°39'610.7
2017-Dec-10 02:56N 40°55' E 028°46'912.5
2017-Dec-10 02:12N 40°58' E 028°58'3 0.3
2017-Dec-09 17:32N 41°00' E 029°00'0 2.0
2017-Dec-09 17:30N 41°00' E 029°00'1 2.7
2017-Dec-09 16:57N 40°59' E 028°60'612.6
2017-Dec-09 16:30N 40°54' E 028°56'27012.6
2017-Dec-08 19:03N 37°54' E 024°35'216.8
2017-Dec-08 18:56N 37°53' E 024°33'1216.5
2017-Dec-08 18:13N 37°46' E 024°21'417.1
2017-Dec-08 17:59N 37°44' E 024°18'916.5
2017-Dec-08 17:26N 37°36' E 024°11'614.4
2017-Dec-08 17:00N 37°35' E 024°03'816.7
2017-Dec-08 16:30N 37°35' E 023°53'816.2
2017-Dec-08 16:00N 37°38' E 023°43'817.1
2017-Dec-08 15:30N 37°46' E 023°39'816.5
2017-Dec-08 15:00N 37°54' E 023°37'4 7.5
2017-Dec-08 14:30N 37°57' E 023°35'0 0.2
2017-Dec-08 13:59N 37°57' E 023°35'0 0.0
2017-Dec-08 13:29N 37°57' E 023°35'0 0.0
2017-Dec-08 12:59N 37°57' E 023°35'0 0.0
2017-Dec-08 12:30N 37°57' E 023°35'0 0.0
2017-Dec-08 11:59N 37°57' E 023°35'0 0.0
2017-Dec-08 11:29N 37°57' E 023°35'0 0.0
2017-Dec-08 10:59N 37°57' E 023°35'0 0.0
2017-Dec-08 10:29N 37°57' E 023°35'0 0.0
2017-Dec-08 09:59N 37°57' E 023°35'0 0.0
2017-Dec-08 09:29N 37°57' E 023°35'0 0.0
2017-Dec-08 08:59N 37°57' E 023°35'0 0.0
2017-Dec-08 08:29N 37°57' E 023°35'0 0.0
2017-Dec-08 07:59N 37°57' E 023°35'0 0.0
2017-Dec-08 07:29N 37°57' E 023°35'0 0.0
2017-Dec-08 06:59N 37°57' E 023°35'0 0.0
2017-Dec-08 06:29N 37°57' E 023°35'0 0.0
2017-Dec-08 05:59N 37°57' E 023°35'0 0.0
2017-Dec-08 05:29N 37°57' E 023°35'0 0.0
2017-Dec-08 04:59N 37°57' E 023°35'0 0.0
2017-Dec-08 04:29N 37°57' E 023°35'0 0.0
2017-Dec-08 03:59N 37°57' E 023°35'0 0.0
2017-Dec-08 03:29N 37°57' E 023°35'0 0.0
2017-Dec-08 02:59N 37°57' E 023°35'0 0.0
2017-Dec-08 02:29N 37°57' E 023°35'0 0.0
2017-Dec-08 01:59N 37°57' E 023°35'0 0.0
2017-Dec-08 01:29N 37°57' E 023°35'0 0.0
2017-Dec-08 00:59N 37°57' E 023°35'0 0.0
2017-Dec-08 00:29N 37°57' E 023°35'0 0.0
2017-Dec-07 23:59N 37°57' E 023°35'0 0.0
2017-Dec-07 23:29N 37°57' E 023°35'0 0.0
2017-Dec-07 22:59N 37°57' E 023°35'0 0.0
2017-Dec-07 22:29N 37°57' E 023°35'0 0.0
2017-Dec-07 21:59N 37°57' E 023°35'0 0.0
2017-Dec-07 21:29N 37°57' E 023°35'0 0.0
2017-Dec-07 20:59N 37°57' E 023°35'0 0.0
2017-Dec-07 20:29N 37°57' E 023°35'0 0.0
2017-Dec-07 19:59N 37°57' E 023°35'0 0.0
2017-Dec-07 19:29N 37°57' E 023°35'0 0.0
2017-Dec-07 18:59N 37°57' E 023°35'0 0.0
2017-Dec-07 18:29N 37°57' E 023°35'0 0.0
2017-Dec-07 17:59N 37°57' E 023°35'1 2.0
2017-Dec-07 17:30N 37°56' E 023°35'2 4.1
2017-Dec-07 17:00N 37°54' E 023°36'0 0.2
2017-Dec-07 16:30N 37°54' E 023°36'1 1.9
2017-Dec-07 16:00N 37°54' E 023°35'0 0.7
2017-Dec-07 15:30N 37°53' E 023°35'1 2.6
2017-Dec-07 15:00N 37°52' E 023°34'3 5.6
2017-Dec-07 14:30N 37°51' E 023°31'0 0.7
2017-Dec-07 14:00N 37°51' E 023°30'0 0.0
2017-Dec-07 13:30N 37°51' E 023°30'0 0.1
2017-Dec-07 13:00N 37°51' E 023°30'0 0.0
2017-Dec-07 12:30N 37°51' E 023°30'0 0.0
2017-Dec-07 12:00N 37°51' E 023°30'0 0.0
2017-Dec-07 11:30N 37°51' E 023°30'0 0.0
2017-Dec-07 11:00N 37°51' E 023°30'0 0.0
2017-Dec-07 10:30N 37°51' E 023°30'0 0.0
2017-Dec-07 10:00N 37°51' E 023°30'0 0.0
2017-Dec-07 09:30N 37°51' E 023°30'0 0.0
2017-Dec-07 09:00N 37°51' E 023°30'0 0.0
2017-Dec-07 08:30N 37°51' E 023°30'0 0.0
2017-Dec-07 08:00N 37°51' E 023°30'0 0.0
2017-Dec-07 07:30N 37°51' E 023°30'0 0.1
2017-Dec-07 07:00N 37°51' E 023°30'0 0.0
2017-Dec-07 06:30N 37°51' E 023°30'0 0.0
2017-Dec-07 06:00N 37°51' E 023°30'0 0.1
2017-Dec-07 05:30N 37°51' E 023°30'0 0.1
2017-Dec-07 05:00N 37°51' E 023°30'0 0.1
2017-Dec-07 04:27N 37°51' E 023°30'0 0.1
2017-Dec-07 04:00N 37°51' E 023°30'0 0.1
2017-Dec-07 03:30N 37°51' E 023°30'0 0.0
2017-Dec-07 03:00N 37°51' E 023°30'0 0.0
2017-Dec-07 02:30N 37°51' E 023°30'0 0.1
2017-Dec-07 02:00N 37°51' E 023°30'0 0.1
2017-Dec-07 01:30N 37°51' E 023°30'0 0.0
2017-Dec-07 01:00N 37°51' E 023°30'0 0.0
2017-Dec-07 00:30N 37°51' E 023°30'0 0.0
2017-Dec-07 00:00N 37°51' E 023°30'0 0.1
2017-Dec-06 23:30N 37°51' E 023°30'0 0.0
2017-Dec-06 23:00N 37°51' E 023°30'0 0.0
2017-Dec-06 22:30N 37°51' E 023°30'0 0.0
2017-Dec-06 22:00N 37°51' E 023°30'0 0.0
2017-Dec-06 21:30N 37°51' E 023°30'0 0.0
2017-Dec-06 21:00N 37°51' E 023°30'  
Track history (hours):
 
Tides and Currents Weather Stations Pressure Air Temp Water Temp Dewpoint Dewpoint Depression Visibility Wind Speed Wind Dir Waves Ship Positions

Hansa Limburg

Last reported at 2017-Dec-15 19:58 UTC. Time now 2017-Dec-15 20:04 UTC.
Position N 44°43' E 037°49'.

Length 175.5 m; beam 27.4 m; draft 10.9 m.

Type: Ship (hazmat cat A). MMSI: 636090980.

Date/timePositionNaut miles runAvg speedWind from/ knotsBaromVisibWave heightAir tempDewpointWater temp
2017-Dec-15 19:58N 44°43' E 037°49'0 0.0
2017-Dec-15 19:28N 44°43' E 037°49'0 0.0
2017-Dec-15 18:55N 44°43' E 037°49'0 0.0
2017-Dec-15 18:28N 44°43' E 037°49'0 0.0
2017-Dec-15 17:58N 44°43' E 037°49'0 0.0
2017-Dec-15 17:28N 44°43' E 037°49'0 0.0
2017-Dec-15 16:58N 44°43' E 037°49'0 0.0
2017-Dec-15 16:28N 44°43' E 037°49'0 0.0
2017-Dec-15 15:58N 44°43' E 037°49'0 0.0
2017-Dec-15 15:28N 44°43' E 037°49'0 0.0
2017-Dec-15 14:58N 44°43' E 037°49'0 0.0
2017-Dec-15 14:28N 44°43' E 037°49'0 0.0
2017-Dec-15 13:58N 44°43' E 037°49'0 0.0
2017-Dec-15 13:28N 44°43' E 037°49'0 0.0
2017-Dec-15 12:58N 44°43' E 037°49'0 0.5
2017-Dec-15 12:30N 44°43' E 037°49'4 7.4
2017-Dec-15 12:00N 44°40' E 037°50'3 6.1
2017-Dec-15 11:30N 44°37' E 037°51'3 6.6
2017-Dec-15 11:01N 44°34' E 037°48'815.9
2017-Dec-15 10:31N 44°32' E 037°37'815.9
2017-Dec-15 10:00N 44°31' E 037°26'11 2.2
2017-Dec-15 04:55N 44°26' E 037°11'1 0.9
2017-Dec-15 03:49N 44°25' E 037°11'1 0.7
2017-Dec-15 02:28N 44°24' E 037°12'1 0.6
2017-Dec-15 00:38N 44°23' E 037°12'0 0.5
2017-Dec-15 00:29N 44°23' E 037°12'3 0.4
2017-Dec-14 18:23N 44°21' E 037°14'1 3.8
2017-Dec-14 18:00N 44°22' E 037°15'713.7
2017-Dec-14 17:27N 44°29' E 037°17'3 0.8
2017-Dec-14 14:06N 44°27' E 037°19'0 1.0
2017-Dec-14 13:59N 44°27' E 037°19'1 1.0
2017-Dec-14 13:21N 44°27' E 037°19'0 0.9
2017-Dec-14 13:00N 44°26' E 037°20'0 0.9
2017-Dec-14 12:27N 44°26' E 037°20'2 0.6
2017-Dec-14 09:46N 44°24' E 037°21'0 0.6
2017-Dec-14 09:27N 44°24' E 037°21'0 0.6
2017-Dec-14 09:00N 44°24' E 037°21'1 0.6
2017-Dec-14 07:01N 44°23' E 037°21'0 0.4
2017-Dec-14 07:00N 44°23' E 037°21'0 0.5
2017-Dec-14 06:28N 44°22' E 037°21'0 0.9
2017-Dec-14 06:00N 44°22' E 037°20'5 9.8
2017-Dec-14 05:29N 44°27' E 037°21'4 1.8
2017-Dec-14 03:18N 44°31' E 037°24'1 0.8
2017-Dec-14 01:30N 44°29' E 037°25'0 0.9
2017-Dec-14 00:59N 44°29' E 037°25'1 0.9
2017-Dec-13 23:33N 44°28' E 037°26'0 1.0
2017-Dec-13 23:28N 44°28' E 037°26'1 1.1
2017-Dec-13 22:55N 44°27' E 037°27'0 1.1
2017-Dec-13 22:30N 44°27' E 037°27'1 1.8
2017-Dec-13 21:50N 44°27' E 037°29'3 9.6
2017-Dec-13 21:30N 44°24' E 037°27'510.7
2017-Dec-13 21:00N 44°21' E 037°20'611.1
2017-Dec-13 20:29N 44°18' E 037°13'1011.0
2017-Dec-13 19:36N 44°14' E 037°01'48354.1
2017-Dec-13 19:28N 44°35' E 038°01'5966.0
2017-Dec-13 18:34N 44°08' E 036°47'211.5
2017-Dec-13 18:26N 44°08' E 036°45'39111.4
2017-Dec-12 08:03N 40°59' E 028°60'614.4
2017-Dec-12 07:38N 40°53' E 029°00'213.4
2017-Dec-12 07:30N 40°51' E 029°01'5 9.6
2017-Dec-12 07:00N 40°46' E 029°02'0 0.4
2017-Dec-12 06:30N 40°46' E 029°02'0 0.4
2017-Dec-12 06:00N 40°46' E 029°01'0 0.4
2017-Dec-12 05:29N 40°46' E 029°01'0 0.5
2017-Dec-12 04:54N 40°46' E 029°01'0 0.6
2017-Dec-12 04:28N 40°46' E 029°00'0 0.7
2017-Dec-12 03:57N 40°46' E 028°60'0 0.6
2017-Dec-12 03:30N 40°46' E 028°60'0 0.6
2017-Dec-12 02:56N 40°46' E 028°59'0 0.6
2017-Dec-12 02:30N 40°46' E 028°59'0 0.6
2017-Dec-12 02:00N 40°46' E 028°59'0 0.6
2017-Dec-12 01:28N 40°46' E 028°58'0 0.6
2017-Dec-12 00:54N 40°45' E 028°58'1 2.9
2017-Dec-12 00:28N 40°46' E 028°57'714.0
2017-Dec-11 23:56N 40°51' E 028°49'9 0.2
2017-Dec-10 03:29N 40°56' E 028°39'610.7
2017-Dec-10 02:56N 40°55' E 028°46'912.5
2017-Dec-10 02:12N 40°58' E 028°58'3 0.3
2017-Dec-09 17:32N 41°00' E 029°00'0 2.0
2017-Dec-09 17:30N 41°00' E 029°00'1 2.7
2017-Dec-09 16:57N 40°59' E 028°60'612.6
2017-Dec-09 16:30N 40°54' E 028°56'27012.6
2017-Dec-08 19:03N 37°54' E 024°35'216.8
2017-Dec-08 18:56N 37°53' E 024°33'1216.5
2017-Dec-08 18:13N 37°46' E 024°21'417.1
2017-Dec-08 17:59N 37°44' E 024°18'916.5
2017-Dec-08 17:26N 37°36' E 024°11'614.4
2017-Dec-08 17:00N 37°35' E 024°03'816.7
2017-Dec-08 16:30N 37°35' E 023°53'816.2
2017-Dec-08 16:00N 37°38' E 023°43'817.1
2017-Dec-08 15:30N 37°46' E 023°39'816.5
2017-Dec-08 15:00N 37°54' E 023°37'4 7.5
2017-Dec-08 14:30N 37°57' E 023°35'0 0.2
2017-Dec-08 13:59N 37°57' E 023°35'0 0.0
2017-Dec-08 13:29N 37°57' E 023°35'0 0.0
2017-Dec-08 12:59N 37°57' E 023°35'0 0.0
2017-Dec-08 12:30N 37°57' E 023°35'0 0.0
2017-Dec-08 11:59N 37°57' E 023°35'0 0.0
2017-Dec-08 11:29N 37°57' E 023°35'0 0.0
2017-Dec-08 10:59N 37°57' E 023°35'0 0.0
2017-Dec-08 10:29N 37°57' E 023°35'0 0.0
2017-Dec-08 09:59N 37°57' E 023°35'0 0.0
2017-Dec-08 09:29N 37°57' E 023°35'0 0.0
2017-Dec-08 08:59N 37°57' E 023°35'0 0.0
2017-Dec-08 08:29N 37°57' E 023°35'0 0.0
2017-Dec-08 07:59N 37°57' E 023°35'0 0.0
2017-Dec-08 07:29N 37°57' E 023°35'0 0.0
2017-Dec-08 06:59N 37°57' E 023°35'0 0.0
2017-Dec-08 06:29N 37°57' E 023°35'0 0.0
2017-Dec-08 05:59N 37°57' E 023°35'0 0.0
2017-Dec-08 05:29N 37°57' E 023°35'0 0.0
2017-Dec-08 04:59N 37°57' E 023°35'0 0.0
2017-Dec-08 04:29N 37°57' E 023°35'0 0.0
2017-Dec-08 03:59N 37°57' E 023°35'0 0.0
2017-Dec-08 03:29N 37°57' E 023°35'0 0.0
2017-Dec-08 02:59N 37°57' E 023°35'0 0.0
2017-Dec-08 02:29N 37°57' E 023°35'0 0.0
2017-Dec-08 01:59N 37°57' E 023°35'0 0.0
2017-Dec-08 01:29N 37°57' E 023°35'0 0.0
2017-Dec-08 00:59N 37°57' E 023°35'0 0.0
2017-Dec-08 00:29N 37°57' E 023°35'0 0.0
2017-Dec-07 23:59N 37°57' E 023°35'0 0.0
2017-Dec-07 23:29N 37°57' E 023°35'0 0.0
2017-Dec-07 22:59N 37°57' E 023°35'0 0.0
2017-Dec-07 22:29N 37°57' E 023°35'0 0.0
2017-Dec-07 21:59N 37°57' E 023°35'0 0.0
2017-Dec-07 21:29N 37°57' E 023°35'0 0.0
2017-Dec-07 20:59N 37°57' E 023°35'0 0.0
2017-Dec-07 20:29N 37°57' E 023°35'0 0.0
2017-Dec-07 19:59N 37°57' E 023°35'0 0.0
2017-Dec-07 19:29N 37°57' E 023°35'0 0.0
2017-Dec-07 18:59N 37°57' E 023°35'0 0.0
2017-Dec-07 18:29N 37°57' E 023°35'0 0.0
2017-Dec-07 17:59N 37°57' E 023°35'1 2.0
2017-Dec-07 17:30N 37°56' E 023°35'2 4.1
2017-Dec-07 17:00N 37°54' E 023°36'0 0.2
2017-Dec-07 16:30N 37°54' E 023°36'1 1.9
2017-Dec-07 16:00N 37°54' E 023°35'0 0.7
2017-Dec-07 15:30N 37°53' E 023°35'1 2.6
2017-Dec-07 15:00N 37°52' E 023°34'3 5.6
2017-Dec-07 14:30N 37°51' E 023°31'0 0.7
2017-Dec-07 14:00N 37°51' E 023°30'0 0.0
2017-Dec-07 13:30N 37°51' E 023°30'0 0.1
2017-Dec-07 13:00N 37°51' E 023°30'0 0.0
2017-Dec-07 12:30N 37°51' E 023°30'0 0.0
2017-Dec-07 12:00N 37°51' E 023°30'0 0.0
2017-Dec-07 11:30N 37°51' E 023°30'0 0.0
2017-Dec-07 11:00N 37°51' E 023°30'0 0.0
2017-Dec-07 10:30N 37°51' E 023°30'0 0.0
2017-Dec-07 10:00N 37°51' E 023°30'0 0.0
2017-Dec-07 09:30N 37°51' E 023°30'0 0.0
2017-Dec-07 09:00N 37°51' E 023°30'0 0.0
2017-Dec-07 08:30N 37°51' E 023°30'0 0.0
2017-Dec-07 08:00N 37°51' E 023°30'0 0.0
2017-Dec-07 07:30N 37°51' E 023°30'0 0.1
2017-Dec-07 07:00N 37°51' E 023°30'0 0.0
2017-Dec-07 06:30N 37°51' E 023°30'0 0.0
2017-Dec-07 06:00N 37°51' E 023°30'0 0.1
2017-Dec-07 05:30N 37°51' E 023°30'0 0.1
2017-Dec-07 05:00N 37°51' E 023°30'0 0.1
2017-Dec-07 04:27N 37°51' E 023°30'0 0.1
2017-Dec-07 04:00N 37°51' E 023°30'0 0.1
2017-Dec-07 03:30N 37°51' E 023°30'0 0.0
2017-Dec-07 03:00N 37°51' E 023°30'0 0.0
2017-Dec-07 02:30N 37°51' E 023°30'0 0.1
2017-Dec-07 02:00N 37°51' E 023°30'0 0.1
2017-Dec-07 01:30N 37°51' E 023°30'0 0.0
2017-Dec-07 01:00N 37°51' E 023°30'0 0.0
2017-Dec-07 00:30N 37°51' E 023°30'0 0.0
2017-Dec-07 00:00N 37°51' E 023°30'0 0.1
2017-Dec-06 23:30N 37°51' E 023°30'0 0.0
2017-Dec-06 23:00N 37°51' E 023°30'0 0.0
2017-Dec-06 22:30N 37°51' E 023°30'0 0.0
2017-Dec-06 22:00N 37°51' E 023°30'0 0.0
2017-Dec-06 21:30N 37°51' E 023°30'0 0.0
2017-Dec-06 21:00N 37°51' E 023°30'  

Dump ship's entire track history